Charlotte — C6DH3 — position and weather

sailwx.info

Track history (hours):
 
Tides and Currents Weather Stations Pressure Air Temp Water Temp Dewpoint Dewpoint Depression Visibility Wind Speed Wind Dir Waves Ship Positions

Charlotte

Last reported at 2017-Nov-18 03:49 UTC. Time now 2017-Nov-18 06:45 UTC.
Position N 25°24' W 080°01'.

Length 90 m; draft 4.6 m.

Type: Cargo ship. MMSI: 311000674.

Date/timePositionNaut miles runAvg speedWind from/ knotsBaromVisibWave heightAir tempDewpointWater temp
2017-Nov-18 03:49N 25°24' W 080°01'3 9.8
2017-Nov-18 03:29N 25°27' W 080°00'5 9.9
2017-Nov-18 03:00N 25°32' W 080°00'510.2
2017-Nov-18 02:30N 25°37' W 080°00'510.8
2017-Nov-18 02:00N 25°42' W 080°01'612.5
2017-Nov-18 01:30N 25°49' W 080°02'611.9
2017-Nov-18 01:00N 25°54' W 080°02'510.8
2017-Nov-18 00:30N 25°60' W 080°03'510.6
2017-Nov-18 00:00N 26°05' W 080°05'2 4.3
2017-Nov-17 23:30N 26°04' W 080°07'0 0.1
2017-Nov-17 23:00N 26°04' W 080°07'0 0.0
2017-Nov-17 22:30N 26°04' W 080°07'0 0.0
2017-Nov-17 22:00N 26°04' W 080°07'0 0.0
2017-Nov-17 21:30N 26°04' W 080°07'0 0.0
2017-Nov-17 21:00N 26°04' W 080°07'0 0.0
2017-Nov-17 20:30N 26°04' W 080°07'0 0.0
2017-Nov-17 20:00N 26°04' W 080°07'0 0.0
2017-Nov-17 19:30N 26°04' W 080°07'0 0.0
2017-Nov-17 19:00N 26°04' W 080°07'0 0.0
2017-Nov-17 18:30N 26°04' W 080°07'0 0.0
2017-Nov-17 18:00N 26°04' W 080°07'0 0.0
2017-Nov-17 17:30N 26°04' W 080°07'0 0.0
2017-Nov-17 17:00N 26°04' W 080°07'0 0.0
2017-Nov-17 16:30N 26°04' W 080°07'0 0.0
2017-Nov-17 16:00N 26°04' W 080°07'0 0.0
2017-Nov-17 15:30N 26°04' W 080°07'0 0.0
2017-Nov-17 15:00N 26°04' W 080°07'0 0.0
2017-Nov-17 14:30N 26°04' W 080°07'1 1.1
2017-Nov-17 13:40N 26°05' W 080°07'0 0.7
2017-Nov-17 13:30N 26°05' W 080°07'0 0.0
2017-Nov-17 12:57N 26°05' W 080°07'0 0.0
2017-Nov-17 12:27N 26°05' W 080°07'0 0.0
2017-Nov-17 11:53N 26°05' W 080°07'0 0.0
2017-Nov-17 11:23N 26°05' W 080°07'0 0.0
2017-Nov-17 10:53N 26°05' W 080°07'0 0.0
2017-Nov-17 10:23N 26°05' W 080°07'0 0.0
2017-Nov-17 09:59N 26°05' W 080°07'0 0.0
2017-Nov-17 09:23N 26°05' W 080°07'0 0.0
2017-Nov-17 08:59N 26°05' W 080°07'0 0.0
2017-Nov-17 08:23N 26°05' W 080°07'0 0.0
2017-Nov-17 07:59N 26°05' W 080°07'0 0.0
2017-Nov-17 07:26N 26°05' W 080°07'0 0.0
2017-Nov-17 06:56N 26°05' W 080°07'0 0.0
2017-Nov-17 06:29N 26°05' W 080°07'0 0.0
2017-Nov-17 05:56N 26°05' W 080°07'0 0.0
2017-Nov-17 05:26N 26°05' W 080°07'0 0.0
2017-Nov-17 04:56N 26°05' W 080°07'0 0.0
2017-Nov-17 04:26N 26°05' W 080°07'0 0.0
2017-Nov-17 03:56N 26°05' W 080°07'0 0.0
2017-Nov-17 03:29N 26°05' W 080°07'0 0.0
2017-Nov-17 02:59N 26°05' W 080°07'0 0.0
2017-Nov-17 02:29N 26°05' W 080°07'0 0.0
2017-Nov-17 01:59N 26°05' W 080°07'0 0.0
2017-Nov-17 01:29N 26°05' W 080°07'0 0.0
2017-Nov-17 00:59N 26°05' W 080°07'0 0.0
2017-Nov-17 00:29N 26°05' W 080°07'0 0.0
2017-Nov-16 23:59N 26°05' W 080°07'0 0.0
2017-Nov-16 23:29N 26°05' W 080°07'0 0.0
2017-Nov-16 22:59N 26°05' W 080°07'0 0.0
2017-Nov-16 22:29N 26°05' W 080°07'0 0.0
2017-Nov-16 21:59N 26°05' W 080°07'0 0.0
2017-Nov-16 21:29N 26°05' W 080°07'0 0.0
2017-Nov-16 20:59N 26°05' W 080°07'0 0.0
2017-Nov-16 20:29N 26°05' W 080°07'0 0.0
2017-Nov-16 19:59N 26°05' W 080°07'0 0.0
2017-Nov-16 19:29N 26°05' W 080°07'0 0.0
2017-Nov-16 18:59N 26°05' W 080°07'0 0.0
2017-Nov-16 18:29N 26°05' W 080°07'0 0.0
2017-Nov-16 17:59N 26°05' W 080°07'0 0.0
2017-Nov-16 17:29N 26°05' W 080°07'0 0.0
2017-Nov-16 16:59N 26°05' W 080°07'0 0.0
2017-Nov-16 16:29N 26°05' W 080°07'0 0.0
2017-Nov-16 15:50N 26°05' W 080°07'0 0.0
2017-Nov-16 15:20N 26°05' W 080°07'0 0.0
2017-Nov-16 14:56N 26°05' W 080°07'0 0.0
2017-Nov-16 14:20N 26°05' W 080°07'0 0.0
2017-Nov-16 13:50N 26°05' W 080°07'0 0.0
2017-Nov-16 13:23N 26°05' W 080°07'0 0.0
2017-Nov-16 12:53N 26°05' W 080°07'0 0.0
2017-Nov-16 12:23N 26°05' W 080°07'0 0.0
2017-Nov-16 11:53N 26°05' W 080°07'0 0.0
2017-Nov-16 11:23N 26°05' W 080°07'0 0.0
2017-Nov-16 10:53N 26°05' W 080°07'0 0.0
2017-Nov-16 10:23N 26°05' W 080°07'0 0.0
2017-Nov-16 09:53N 26°05' W 080°07'0 0.0
2017-Nov-16 09:23N 26°05' W 080°07'0 0.0
2017-Nov-16 08:56N 26°05' W 080°07'0 0.0
2017-Nov-16 08:26N 26°05' W 080°07'0 0.0
2017-Nov-16 07:56N 26°05' W 080°07'0 0.0
2017-Nov-16 07:26N 26°05' W 080°07'0 0.0
2017-Nov-16 06:56N 26°05' W 080°07'0 0.0
2017-Nov-16 06:26N 26°05' W 080°07'0 0.0
2017-Nov-16 05:56N 26°05' W 080°07'0 0.0
2017-Nov-16 05:26N 26°05' W 080°07'0 0.0
2017-Nov-16 04:56N 26°05' W 080°07'0 0.0
2017-Nov-16 04:29N 26°05' W 080°07'0 0.0
2017-Nov-16 03:59N 26°05' W 080°07'0 0.0
2017-Nov-16 03:29N 26°05' W 080°07'0 0.0
2017-Nov-16 02:59N 26°05' W 080°07'0 0.0
2017-Nov-16 02:29N 26°05' W 080°07'0 0.0
2017-Nov-16 01:59N 26°05' W 080°07'0 0.0
2017-Nov-16 01:29N 26°05' W 080°07'0 0.0
2017-Nov-16 00:59N 26°05' W 080°07'0 0.0
2017-Nov-16 00:29N 26°05' W 080°07'0 0.0
2017-Nov-15 23:59N 26°05' W 080°07'0 0.0
2017-Nov-15 23:29N 26°05' W 080°07'0 0.0
2017-Nov-15 22:59N 26°05' W 080°07'0 0.0
2017-Nov-15 22:29N 26°05' W 080°07'0 0.0
2017-Nov-15 21:59N 26°05' W 080°07'0 0.0
2017-Nov-15 21:29N 26°05' W 080°07'0 0.0
2017-Nov-15 20:58N 26°05' W 080°07'0 0.0
2017-Nov-15 20:28N 26°05' W 080°07'0 0.0
2017-Nov-15 19:58N 26°05' W 080°07'0 0.0
2017-Nov-15 19:28N 26°05' W 080°07'0 0.0
2017-Nov-15 18:58N 26°05' W 080°07'0 0.0
2017-Nov-15 18:28N 26°05' W 080°07'0 0.0
2017-Nov-15 17:58N 26°05' W 080°07'0 0.0
2017-Nov-15 17:28N 26°05' W 080°07'0 0.0
2017-Nov-15 16:58N 26°05' W 080°07'3 6.4
2017-Nov-15 16:30N 26°06' W 080°04'2 3.2
2017-Nov-15 15:56N 26°07' W 080°04'0 0.0
2017-Nov-15 15:26N 26°07' W 080°04'0 0.0
2017-Nov-15 14:50N 26°07' W 080°04'0 0.0
2017-Nov-15 14:26N 26°07' W 080°04'0 0.0
2017-Nov-15 13:56N 26°07' W 080°04'0 0.0
2017-Nov-15 13:26N 26°07' W 080°04'0 0.0
2017-Nov-15 12:56N 26°07' W 080°04'0 0.0
2017-Nov-15 12:26N 26°07' W 080°04'0 0.0
2017-Nov-15 11:56N 26°07' W 080°04'0 0.0
2017-Nov-15 11:26N 26°07' W 080°04'0 0.0
2017-Nov-15 10:59N 26°07' W 080°04'0 0.0
2017-Nov-15 10:29N 26°07' W 080°04'0 0.0
2017-Nov-15 09:59N 26°07' W 080°04'0 0.0
2017-Nov-15 09:29N 26°07' W 080°04'0 0.0
2017-Nov-15 08:59N 26°07' W 080°04'0 0.0
2017-Nov-15 08:29N 26°07' W 080°04'0 0.0
2017-Nov-15 07:59N 26°07' W 080°04'0 0.0
2017-Nov-15 07:29N 26°07' W 080°04'0 0.0
2017-Nov-15 06:56N 26°07' W 080°04'0 0.1
2017-Nov-15 06:26N 26°07' W 080°04'0 0.1
2017-Nov-15 05:59N 26°07' W 080°04'2 3.2
2017-Nov-15 05:30N 26°06' W 080°05'3 5.0
2017-Nov-15 05:00N 26°04' W 080°07'0 0.2
2017-Nov-15 04:30N 26°04' W 080°07'0 0.0
2017-Nov-15 04:00N 26°04' W 080°07'0 0.0
2017-Nov-15 03:30N 26°04' W 080°07'0 0.0
2017-Nov-15 03:00N 26°04' W 080°07'0 0.0
2017-Nov-15 02:30N 26°04' W 080°07'0 0.0
2017-Nov-15 02:00N 26°04' W 080°07'0 0.0
2017-Nov-15 01:30N 26°04' W 080°07'0 0.5
2017-Nov-15 01:00N 26°04' W 080°07'3 5.8
2017-Nov-15 00:30N 26°05' W 080°04'3 5.8
2017-Nov-15 00:00N 26°03' W 080°03'3 5.5
2017-Nov-14 23:30N 25°60' W 080°02'4 7.4
2017-Nov-14 23:00N 25°56' W 080°02'4 8.0
2017-Nov-14 22:30N 25°52' W 080°02'510.8
2017-Nov-14 22:00N 25°47' W 080°01'611.9
2017-Nov-14 21:30N 25°41' W 080°01'611.6
2017-Nov-14 21:00N 25°35' W 080°01'611.6
2017-Nov-14 20:30N 25°29' W 080°01'  
Track history (hours):
 
Tides and Currents Weather Stations Pressure Air Temp Water Temp Dewpoint Dewpoint Depression Visibility Wind Speed Wind Dir Waves Ship Positions

Charlotte

Last reported at 2017-Nov-18 03:49 UTC. Time now 2017-Nov-18 06:45 UTC.
Position N 25°24' W 080°01'.

Length 90 m; draft 4.6 m.

Type: Cargo ship. MMSI: 311000674.

Date/timePositionNaut miles runAvg speedWind from/ knotsBaromVisibWave heightAir tempDewpointWater temp
2017-Nov-18 03:49N 25°24' W 080°01'3 9.8
2017-Nov-18 03:29N 25°27' W 080°00'5 9.9
2017-Nov-18 03:00N 25°32' W 080°00'510.2
2017-Nov-18 02:30N 25°37' W 080°00'510.8
2017-Nov-18 02:00N 25°42' W 080°01'612.5
2017-Nov-18 01:30N 25°49' W 080°02'611.9
2017-Nov-18 01:00N 25°54' W 080°02'510.8
2017-Nov-18 00:30N 25°60' W 080°03'510.6
2017-Nov-18 00:00N 26°05' W 080°05'2 4.3
2017-Nov-17 23:30N 26°04' W 080°07'0 0.1
2017-Nov-17 23:00N 26°04' W 080°07'0 0.0
2017-Nov-17 22:30N 26°04' W 080°07'0 0.0
2017-Nov-17 22:00N 26°04' W 080°07'0 0.0
2017-Nov-17 21:30N 26°04' W 080°07'0 0.0
2017-Nov-17 21:00N 26°04' W 080°07'0 0.0
2017-Nov-17 20:30N 26°04' W 080°07'0 0.0
2017-Nov-17 20:00N 26°04' W 080°07'0 0.0
2017-Nov-17 19:30N 26°04' W 080°07'0 0.0
2017-Nov-17 19:00N 26°04' W 080°07'0 0.0
2017-Nov-17 18:30N 26°04' W 080°07'0 0.0
2017-Nov-17 18:00N 26°04' W 080°07'0 0.0
2017-Nov-17 17:30N 26°04' W 080°07'0 0.0
2017-Nov-17 17:00N 26°04' W 080°07'0 0.0
2017-Nov-17 16:30N 26°04' W 080°07'0 0.0
2017-Nov-17 16:00N 26°04' W 080°07'0 0.0
2017-Nov-17 15:30N 26°04' W 080°07'0 0.0
2017-Nov-17 15:00N 26°04' W 080°07'0 0.0
2017-Nov-17 14:30N 26°04' W 080°07'1 1.1
2017-Nov-17 13:40N 26°05' W 080°07'0 0.7
2017-Nov-17 13:30N 26°05' W 080°07'0 0.0
2017-Nov-17 12:57N 26°05' W 080°07'0 0.0
2017-Nov-17 12:27N 26°05' W 080°07'0 0.0
2017-Nov-17 11:53N 26°05' W 080°07'0 0.0
2017-Nov-17 11:23N 26°05' W 080°07'0 0.0
2017-Nov-17 10:53N 26°05' W 080°07'0 0.0
2017-Nov-17 10:23N 26°05' W 080°07'0 0.0
2017-Nov-17 09:59N 26°05' W 080°07'0 0.0
2017-Nov-17 09:23N 26°05' W 080°07'0 0.0
2017-Nov-17 08:59N 26°05' W 080°07'0 0.0
2017-Nov-17 08:23N 26°05' W 080°07'0 0.0
2017-Nov-17 07:59N 26°05' W 080°07'0 0.0
2017-Nov-17 07:26N 26°05' W 080°07'0 0.0
2017-Nov-17 06:56N 26°05' W 080°07'0 0.0
2017-Nov-17 06:29N 26°05' W 080°07'0 0.0
2017-Nov-17 05:56N 26°05' W 080°07'0 0.0
2017-Nov-17 05:26N 26°05' W 080°07'0 0.0
2017-Nov-17 04:56N 26°05' W 080°07'0 0.0
2017-Nov-17 04:26N 26°05' W 080°07'0 0.0
2017-Nov-17 03:56N 26°05' W 080°07'0 0.0
2017-Nov-17 03:29N 26°05' W 080°07'0 0.0
2017-Nov-17 02:59N 26°05' W 080°07'0 0.0
2017-Nov-17 02:29N 26°05' W 080°07'0 0.0
2017-Nov-17 01:59N 26°05' W 080°07'0 0.0
2017-Nov-17 01:29N 26°05' W 080°07'0 0.0
2017-Nov-17 00:59N 26°05' W 080°07'0 0.0
2017-Nov-17 00:29N 26°05' W 080°07'0 0.0
2017-Nov-16 23:59N 26°05' W 080°07'0 0.0
2017-Nov-16 23:29N 26°05' W 080°07'0 0.0
2017-Nov-16 22:59N 26°05' W 080°07'0 0.0
2017-Nov-16 22:29N 26°05' W 080°07'0 0.0
2017-Nov-16 21:59N 26°05' W 080°07'0 0.0
2017-Nov-16 21:29N 26°05' W 080°07'0 0.0
2017-Nov-16 20:59N 26°05' W 080°07'0 0.0
2017-Nov-16 20:29N 26°05' W 080°07'0 0.0
2017-Nov-16 19:59N 26°05' W 080°07'0 0.0
2017-Nov-16 19:29N 26°05' W 080°07'0 0.0
2017-Nov-16 18:59N 26°05' W 080°07'0 0.0
2017-Nov-16 18:29N 26°05' W 080°07'0 0.0
2017-Nov-16 17:59N 26°05' W 080°07'0 0.0
2017-Nov-16 17:29N 26°05' W 080°07'0 0.0
2017-Nov-16 16:59N 26°05' W 080°07'0 0.0
2017-Nov-16 16:29N 26°05' W 080°07'0 0.0
2017-Nov-16 15:50N 26°05' W 080°07'0 0.0
2017-Nov-16 15:20N 26°05' W 080°07'0 0.0
2017-Nov-16 14:56N 26°05' W 080°07'0 0.0
2017-Nov-16 14:20N 26°05' W 080°07'0 0.0
2017-Nov-16 13:50N 26°05' W 080°07'0 0.0
2017-Nov-16 13:23N 26°05' W 080°07'0 0.0
2017-Nov-16 12:53N 26°05' W 080°07'0 0.0
2017-Nov-16 12:23N 26°05' W 080°07'0 0.0
2017-Nov-16 11:53N 26°05' W 080°07'0 0.0
2017-Nov-16 11:23N 26°05' W 080°07'0 0.0
2017-Nov-16 10:53N 26°05' W 080°07'0 0.0
2017-Nov-16 10:23N 26°05' W 080°07'0 0.0
2017-Nov-16 09:53N 26°05' W 080°07'0 0.0
2017-Nov-16 09:23N 26°05' W 080°07'0 0.0
2017-Nov-16 08:56N 26°05' W 080°07'0 0.0
2017-Nov-16 08:26N 26°05' W 080°07'0 0.0
2017-Nov-16 07:56N 26°05' W 080°07'0 0.0
2017-Nov-16 07:26N 26°05' W 080°07'0 0.0
2017-Nov-16 06:56N 26°05' W 080°07'0 0.0
2017-Nov-16 06:26N 26°05' W 080°07'0 0.0
2017-Nov-16 05:56N 26°05' W 080°07'0 0.0
2017-Nov-16 05:26N 26°05' W 080°07'0 0.0
2017-Nov-16 04:56N 26°05' W 080°07'0 0.0
2017-Nov-16 04:29N 26°05' W 080°07'0 0.0
2017-Nov-16 03:59N 26°05' W 080°07'0 0.0
2017-Nov-16 03:29N 26°05' W 080°07'0 0.0
2017-Nov-16 02:59N 26°05' W 080°07'0 0.0
2017-Nov-16 02:29N 26°05' W 080°07'0 0.0
2017-Nov-16 01:59N 26°05' W 080°07'0 0.0
2017-Nov-16 01:29N 26°05' W 080°07'0 0.0
2017-Nov-16 00:59N 26°05' W 080°07'0 0.0
2017-Nov-16 00:29N 26°05' W 080°07'0 0.0
2017-Nov-15 23:59N 26°05' W 080°07'0 0.0
2017-Nov-15 23:29N 26°05' W 080°07'0 0.0
2017-Nov-15 22:59N 26°05' W 080°07'0 0.0
2017-Nov-15 22:29N 26°05' W 080°07'0 0.0
2017-Nov-15 21:59N 26°05' W 080°07'0 0.0
2017-Nov-15 21:29N 26°05' W 080°07'0 0.0
2017-Nov-15 20:58N 26°05' W 080°07'0 0.0
2017-Nov-15 20:28N 26°05' W 080°07'0 0.0
2017-Nov-15 19:58N 26°05' W 080°07'0 0.0
2017-Nov-15 19:28N 26°05' W 080°07'0 0.0
2017-Nov-15 18:58N 26°05' W 080°07'0 0.0
2017-Nov-15 18:28N 26°05' W 080°07'0 0.0
2017-Nov-15 17:58N 26°05' W 080°07'0 0.0
2017-Nov-15 17:28N 26°05' W 080°07'0 0.0
2017-Nov-15 16:58N 26°05' W 080°07'3 6.4
2017-Nov-15 16:30N 26°06' W 080°04'2 3.2
2017-Nov-15 15:56N 26°07' W 080°04'0 0.0
2017-Nov-15 15:26N 26°07' W 080°04'0 0.0
2017-Nov-15 14:50N 26°07' W 080°04'0 0.0
2017-Nov-15 14:26N 26°07' W 080°04'0 0.0
2017-Nov-15 13:56N 26°07' W 080°04'0 0.0
2017-Nov-15 13:26N 26°07' W 080°04'0 0.0
2017-Nov-15 12:56N 26°07' W 080°04'0 0.0
2017-Nov-15 12:26N 26°07' W 080°04'0 0.0
2017-Nov-15 11:56N 26°07' W 080°04'0 0.0
2017-Nov-15 11:26N 26°07' W 080°04'0 0.0
2017-Nov-15 10:59N 26°07' W 080°04'0 0.0
2017-Nov-15 10:29N 26°07' W 080°04'0 0.0
2017-Nov-15 09:59N 26°07' W 080°04'0 0.0
2017-Nov-15 09:29N 26°07' W 080°04'0 0.0
2017-Nov-15 08:59N 26°07' W 080°04'0 0.0
2017-Nov-15 08:29N 26°07' W 080°04'0 0.0
2017-Nov-15 07:59N 26°07' W 080°04'0 0.0
2017-Nov-15 07:29N 26°07' W 080°04'0 0.0
2017-Nov-15 06:56N 26°07' W 080°04'0 0.1
2017-Nov-15 06:26N 26°07' W 080°04'0 0.1
2017-Nov-15 05:59N 26°07' W 080°04'2 3.2
2017-Nov-15 05:30N 26°06' W 080°05'3 5.0
2017-Nov-15 05:00N 26°04' W 080°07'0 0.2
2017-Nov-15 04:30N 26°04' W 080°07'0 0.0
2017-Nov-15 04:00N 26°04' W 080°07'0 0.0
2017-Nov-15 03:30N 26°04' W 080°07'0 0.0
2017-Nov-15 03:00N 26°04' W 080°07'0 0.0
2017-Nov-15 02:30N 26°04' W 080°07'0 0.0
2017-Nov-15 02:00N 26°04' W 080°07'0 0.0
2017-Nov-15 01:30N 26°04' W 080°07'0 0.5
2017-Nov-15 01:00N 26°04' W 080°07'3 5.8
2017-Nov-15 00:30N 26°05' W 080°04'3 5.8
2017-Nov-15 00:00N 26°03' W 080°03'3 5.5
2017-Nov-14 23:30N 25°60' W 080°02'4 7.4
2017-Nov-14 23:00N 25°56' W 080°02'4 8.0
2017-Nov-14 22:30N 25°52' W 080°02'510.8
2017-Nov-14 22:00N 25°47' W 080°01'611.9
2017-Nov-14 21:30N 25°41' W 080°01'611.6
2017-Nov-14 21:00N 25°35' W 080°01'611.6
2017-Nov-14 20:30N 25°29' W 080°01'  

Dump ship's entire track history